createdAt,value
2018-10-19T00:01:36.242Z,10.50
2018-10-19T00:04:04.892Z,10.50
2018-10-19T00:06:33.706Z,10.40
2018-10-19T00:09:04.934Z,10.40
2018-10-19T00:11:33.497Z,10.50
2018-10-19T00:14:02.170Z,10.50
2018-10-19T00:16:30.921Z,10.50
2018-10-19T00:18:59.627Z,10.50
2018-10-19T00:21:28.292Z,10.50
2018-10-19T00:23:57.095Z,10.60
2018-10-19T00:26:25.921Z,10.60
2018-10-19T00:28:54.815Z,10.50
2018-10-19T00:31:23.560Z,10.40
2018-10-19T00:33:52.432Z,10.40
2018-10-19T00:36:21.210Z,10.30
2018-10-19T00:38:49.944Z,10.20
2018-10-19T00:41:18.889Z,10.20
2018-10-19T00:43:47.774Z,10.20
2018-10-19T00:46:16.644Z,10.20
2018-10-19T00:48:45.360Z,10.20
2018-10-19T00:51:14.056Z,10.20
2018-10-19T00:53:43.248Z,10.20
2018-10-19T00:56:12.074Z,10.10
2018-10-19T00:58:40.697Z,10.20
2018-10-19T01:01:09.488Z,10.20
2018-10-19T01:03:38.213Z,10.20
2018-10-19T01:06:07.083Z,10.20
2018-10-19T01:08:35.735Z,10.10
2018-10-19T01:11:04.795Z,10.10
2018-10-19T01:13:33.558Z,10.10
2018-10-19T01:16:02.293Z,10.10
2018-10-19T01:18:30.980Z,10.10
2018-10-19T01:20:59.813Z,10.10
2018-10-19T01:23:28.579Z,10.00
2018-10-19T01:25:57.395Z,10.00
2018-10-19T01:28:26.886Z,9.90
2018-10-19T01:30:55.816Z,9.90
2018-10-19T01:33:24.844Z,9.90
2018-10-19T01:35:53.702Z,9.90
2018-10-19T01:38:22.510Z,9.80
2018-10-19T01:40:51.204Z,9.80
2018-10-19T01:43:19.855Z,9.80
2018-10-19T01:45:53.824Z,9.80
2018-10-19T01:48:22.577Z,9.80
2018-10-19T01:50:51.305Z,9.80
2018-10-19T01:53:19.961Z,9.80
2018-10-19T01:55:48.593Z,9.80
2018-10-19T01:58:17.522Z,9.70
2018-10-19T02:00:46.250Z,9.70
2018-10-19T02:03:14.936Z,9.70
2018-10-19T02:05:43.585Z,9.70
2018-10-19T02:08:12.266Z,9.70
2018-10-19T02:10:40.863Z,9.70
2018-10-19T02:13:10.241Z,9.60
2018-10-19T02:15:39.106Z,9.60
2018-10-19T02:18:07.940Z,9.70
2018-10-19T02:20:36.626Z,9.70
2018-10-19T02:23:05.375Z,9.70
2018-10-19T02:25:34.206Z,9.70
2018-10-19T02:28:03.505Z,9.70
2018-10-19T02:30:32.312Z,9.80
2018-10-19T02:33:01.170Z,9.70
2018-10-19T02:35:29.854Z,9.80
2018-10-19T02:37:58.563Z,9.80
2018-10-19T02:40:28.311Z,9.90
2018-10-19T02:42:57.005Z,9.90
2018-10-19T02:45:25.804Z,9.90
2018-10-19T02:47:54.517Z,9.90
2018-10-19T02:50:23.281Z,10.00
2018-10-19T02:52:52.125Z,9.90
2018-10-19T02:55:21.004Z,10.00
2018-10-19T02:57:49.790Z,10.00
2018-10-19T03:00:18.458Z,9.90
2018-10-19T03:02:47.118Z,9.90
2018-10-19T03:05:15.882Z,9.90
2018-10-19T03:07:44.536Z,9.90
2018-10-19T03:10:13.545Z,9.90
2018-10-19T03:12:42.208Z,9.90
2018-10-19T03:15:10.948Z,9.90
2018-10-19T03:17:40.441Z,9.90
2018-10-19T03:20:09.924Z,9.90
2018-10-19T03:22:39.202Z,9.90
2018-10-19T03:25:08.541Z,10.00
2018-10-19T03:27:37.603Z,9.90
2018-10-19T03:30:06.994Z,9.90
2018-10-19T03:32:35.787Z,9.80
2018-10-19T03:35:04.986Z,9.80
2018-10-19T03:37:33.781Z,9.80
2018-10-19T03:40:02.779Z,9.80
2018-10-19T03:42:31.465Z,9.90
2018-10-19T03:45:00.257Z,9.90
2018-10-19T03:47:28.892Z,10.00
2018-10-19T03:49:57.548Z,9.90
2018-10-19T03:52:26.250Z,9.90
2018-10-19T03:54:54.969Z,10.00
2018-10-19T03:57:23.819Z,9.90
2018-10-19T03:59:52.622Z,9.90
2018-10-19T04:02:21.319Z,9.90
2018-10-19T04:04:50.065Z,9.90
2018-10-19T04:07:19.091Z,9.80
2018-10-19T04:09:47.827Z,9.70
2018-10-19T04:12:16.517Z,9.70
2018-10-19T04:14:45.712Z,9.70
2018-10-19T04:17:14.505Z,9.80
2018-10-19T04:19:43.543Z,9.80
2018-10-19T04:22:12.483Z,9.80
2018-10-19T04:24:41.240Z,9.80
2018-10-19T04:27:10.105Z,9.80
2018-10-19T04:29:38.597Z,9.80
2018-10-19T04:32:07.256Z,9.80
2018-10-19T04:34:37.074Z,9.90
2018-10-19T04:37:06.953Z,9.90
2018-10-19T04:39:36.258Z,10.00
2018-10-19T04:42:05.337Z,10.00
2018-10-19T04:44:33.992Z,9.90
2018-10-19T04:47:03.065Z,9.90
2018-10-19T04:52:14.286Z,9.90
2018-10-19T04:54:43.773Z,9.90
2018-10-19T04:57:12.808Z,10.00
2018-10-19T04:59:41.570Z,10.00
2018-10-19T05:02:10.379Z,10.00
2018-10-19T05:04:39.143Z,10.00
2018-10-19T05:07:08.110Z,9.90
2018-10-19T05:09:36.940Z,9.90
2018-10-19T05:12:05.680Z,9.80
2018-10-19T05:14:34.279Z,9.90
2018-10-19T05:17:02.954Z,9.80
2018-10-19T05:19:31.724Z,9.90
2018-10-19T05:22:00.373Z,9.80
2018-10-19T05:24:29.128Z,9.80
2018-10-19T05:26:57.879Z,9.80
2018-10-19T05:29:26.546Z,9.90
2018-10-19T05:31:55.300Z,9.90
2018-10-19T05:34:23.940Z,9.90
2018-10-19T05:36:52.583Z,9.90
2018-10-19T05:39:21.279Z,9.90
2018-10-19T05:41:49.960Z,10.00
2018-10-19T05:44:18.671Z,10.00
2018-10-19T05:46:47.369Z,10.10
2018-10-19T05:49:16.000Z,10.20
2018-10-19T05:51:44.775Z,10.20
2018-10-19T05:54:13.714Z,10.20
2018-10-19T05:56:42.506Z,10.20
2018-10-19T05:59:11.212Z,10.20
2018-10-19T06:01:39.826Z,10.30
2018-10-19T06:04:08.466Z,10.30
2018-10-19T06:06:37.181Z,10.30
2018-10-19T06:09:07.596Z,10.30
2018-10-19T06:11:36.254Z,10.30
2018-10-19T06:14:05.098Z,10.30
2018-10-19T06:16:33.836Z,10.30
2018-10-19T06:19:02.540Z,10.30
2018-10-19T06:21:31.193Z,10.30
2018-10-19T06:23:59.774Z,10.30
2018-10-19T06:26:28.505Z,10.30
2018-10-19T06:28:57.117Z,10.30
2018-10-19T06:31:25.932Z,10.30
2018-10-19T06:33:54.652Z,10.40
2018-10-19T06:36:23.368Z,10.40
2018-10-19T06:38:52.055Z,10.40
2018-10-19T06:41:20.811Z,10.40
2018-10-19T06:43:49.524Z,10.40
2018-10-19T06:46:18.181Z,10.40
2018-10-19T06:48:46.806Z,10.40
2018-10-19T06:51:15.544Z,10.40
2018-10-19T06:53:44.315Z,10.40
2018-10-19T06:56:13.176Z,10.40
2018-10-19T06:58:41.881Z,10.40
2018-10-19T07:01:10.516Z,10.40
2018-10-19T07:03:39.282Z,10.40
2018-10-19T07:06:08.068Z,10.40
2018-10-19T07:08:36.727Z,10.50
2018-10-19T07:11:05.765Z,10.50
2018-10-19T07:13:34.369Z,10.50
2018-10-19T07:16:03.115Z,10.40
2018-10-19T07:18:31.831Z,10.30
2018-10-19T07:21:00.554Z,10.30
2018-10-19T07:23:29.146Z,10.20
2018-10-19T07:25:57.921Z,10.20
2018-10-19T07:28:26.612Z,10.30
2018-10-19T07:30:55.302Z,10.30
2018-10-19T07:33:24.102Z,10.40
2018-10-19T07:35:52.878Z,10.40
2018-10-19T07:38:21.537Z,10.50
2018-10-19T07:40:50.248Z,10.40
2018-10-19T07:43:19.014Z,10.50
2018-10-19T07:45:47.782Z,10.40
2018-10-19T07:48:16.600Z,10.40
2018-10-19T07:50:45.329Z,10.30
2018-10-19T07:53:14.085Z,10.30
2018-10-19T07:55:42.724Z,10.40
2018-10-19T07:58:11.343Z,10.50
2018-10-19T08:00:40.345Z,10.60
2018-10-19T08:03:09.057Z,10.60
2018-10-19T08:05:38.189Z,10.60
2018-10-19T08:08:06.982Z,10.50
2018-10-19T08:10:35.739Z,10.60
2018-10-19T08:13:04.516Z,10.60
2018-10-19T08:15:33.289Z,10.70
2018-10-19T08:18:02.064Z,10.70
2018-10-19T08:20:30.834Z,10.70
2018-10-19T08:22:59.666Z,10.70
2018-10-19T08:25:28.437Z,10.80
2018-10-19T08:27:57.226Z,10.90
2018-10-19T08:30:26.128Z,10.90
2018-10-19T08:32:55.084Z,10.90
2018-10-19T08:35:24.372Z,11.00
2018-10-19T08:37:53.439Z,11.00
2018-10-19T08:40:22.213Z,11.20
2018-10-19T08:42:50.925Z,11.30
2018-10-19T08:45:20.379Z,11.40
2018-10-19T08:47:49.309Z,11.50
2018-10-19T08:50:18.050Z,11.60
2018-10-19T08:52:46.877Z,11.70
2018-10-19T08:55:16.090Z,11.70
2018-10-19T08:57:44.852Z,11.70
2018-10-19T09:00:13.588Z,11.80
2018-10-19T09:02:42.299Z,11.80
2018-10-19T09:05:11.069Z,11.90
2018-10-19T09:07:39.800Z,12.00
2018-10-19T09:10:08.789Z,11.90
2018-10-19T09:12:37.713Z,12.00
2018-10-19T09:15:07.265Z,12.00
2018-10-19T09:17:35.876Z,12.10
2018-10-19T09:20:05.116Z,12.10
2018-10-19T09:22:33.963Z,12.20
2018-10-19T09:25:02.753Z,12.20
2018-10-19T09:27:31.523Z,12.30
2018-10-19T09:30:00.176Z,12.40
2018-10-19T09:32:28.795Z,12.40
2018-10-19T09:34:57.569Z,12.40
2018-10-19T09:37:26.265Z,12.40
2018-10-19T09:39:55.091Z,12.60
2018-10-19T09:42:23.858Z,12.80
2018-10-19T09:44:52.597Z,12.90
2018-10-19T09:47:21.474Z,13.10
2018-10-19T09:49:50.287Z,13.10
2018-10-19T09:52:19.215Z,13.10
2018-10-19T09:54:47.902Z,13.30
2018-10-19T09:57:16.669Z,13.50
2018-10-19T09:59:45.256Z,13.50
2018-10-19T10:02:13.817Z,13.60
2018-10-19T10:04:42.509Z,13.70
2018-10-19T10:07:11.167Z,13.80
2018-10-19T10:09:39.804Z,13.80
2018-10-19T10:12:08.459Z,13.90
2018-10-19T10:14:37.154Z,14.00
2018-10-19T10:17:05.869Z,14.00
2018-10-19T10:19:34.480Z,14.00
2018-10-19T10:22:03.236Z,14.10
2018-10-19T10:24:31.904Z,14.10
2018-10-19T10:27:00.628Z,14.20
2018-10-19T10:29:29.272Z,14.30
2018-10-19T10:31:58.041Z,14.50
2018-10-19T10:34:26.751Z,14.60
2018-10-19T10:36:55.457Z,14.50
2018-10-19T10:39:24.239Z,14.40
2018-10-19T10:41:52.768Z,14.50
2018-10-19T10:44:21.399Z,14.60
2018-10-19T10:46:50.424Z,14.70
2018-10-19T10:49:18.967Z,14.80
2018-10-19T10:51:47.645Z,14.90
2018-10-19T10:54:16.509Z,14.90
2018-10-19T10:56:45.187Z,15.20
2018-10-19T10:59:13.791Z,15.30
2018-10-19T11:01:43.345Z,15.30
2018-10-19T11:04:12.091Z,15.50
2018-10-19T11:06:40.728Z,15.70
2018-10-19T11:09:10.901Z,15.80
2018-10-19T11:11:39.619Z,16.00
2018-10-19T11:14:08.261Z,16.00
2018-10-19T11:16:36.984Z,16.20
2018-10-19T11:19:05.783Z,16.30
2018-10-19T11:21:35.008Z,16.40
2018-10-19T11:24:03.661Z,16.10
2018-10-19T11:26:32.355Z,16.20
2018-10-19T11:29:00.910Z,16.30
2018-10-19T11:31:29.512Z,16.10
2018-10-19T11:33:58.238Z,16.00
2018-10-19T11:36:26.931Z,16.20
2018-10-19T11:38:55.689Z,16.30
2018-10-19T11:41:24.377Z,16.20
2018-10-19T11:43:53.099Z,16.30
2018-10-19T11:46:21.823Z,16.50
2018-10-19T11:48:50.550Z,16.70
2018-10-19T11:51:19.083Z,16.70
2018-10-19T11:53:47.759Z,16.80
2018-10-19T11:56:17.489Z,17.10
2018-10-19T11:58:46.223Z,17.30
2018-10-19T12:01:14.949Z,17.10
2018-10-19T12:03:43.636Z,17.20
2018-10-19T12:06:12.292Z,17.40
2018-10-19T12:08:40.870Z,17.40
2018-10-19T12:11:09.540Z,17.30
2018-10-19T12:13:38.312Z,17.20
2018-10-19T12:16:07.400Z,17.20
2018-10-19T12:18:36.045Z,17.40
2018-10-19T12:21:05.003Z,17.50
2018-10-19T12:23:33.604Z,17.60
2018-10-19T12:26:02.368Z,17.50
2018-10-19T12:28:30.983Z,17.70
2018-10-19T12:30:59.706Z,17.80
2018-10-19T12:33:28.357Z,17.70
2018-10-19T12:35:57.080Z,18.00
2018-10-19T12:38:26.287Z,18.00
2018-10-19T12:40:54.975Z,18.00
2018-10-19T12:43:23.717Z,17.90
2018-10-19T12:46:34.855Z,18.00
2018-10-19T12:49:03.582Z,18.10
2018-10-19T12:51:32.245Z,18.10
2018-10-19T12:54:01.052Z,18.20
2018-10-19T12:56:29.666Z,18.00
2018-10-19T12:58:58.367Z,18.20
2018-10-19T13:01:28.219Z,18.40
2018-10-19T13:03:57.306Z,18.40
2018-10-19T13:06:25.938Z,18.60
2018-10-19T13:08:54.740Z,18.60
2018-10-19T13:11:23.767Z,18.80
2018-10-19T13:13:52.591Z,18.90
2018-10-19T13:16:21.371Z,18.90
2018-10-19T13:18:50.047Z,18.70
2018-10-19T13:21:18.765Z,18.70
2018-10-19T13:23:47.506Z,18.90
2018-10-19T13:26:16.196Z,19.00
2018-10-19T13:28:44.890Z,18.90
2018-10-19T13:31:13.661Z,18.80
2018-10-19T13:33:42.353Z,18.60
2018-10-19T13:36:11.139Z,18.50
2018-10-19T13:38:39.808Z,18.40
2018-10-19T13:41:08.622Z,18.10
2018-10-19T13:43:37.448Z,17.80
2018-10-19T13:46:06.072Z,17.70
2018-10-19T13:48:34.890Z,17.60
2018-10-19T13:51:03.740Z,17.40
2018-10-19T13:53:32.568Z,17.50
2018-10-19T13:56:01.735Z,17.50
2018-10-19T13:58:30.596Z,17.70
2018-10-19T14:00:59.242Z,17.70
2018-10-19T14:03:29.155Z,17.90
2018-10-19T14:05:57.848Z,17.90
2018-10-19T14:08:26.640Z,18.00
2018-10-19T14:10:55.420Z,18.20
2018-10-19T14:13:24.177Z,18.40
2018-10-19T14:15:52.811Z,18.20
2018-10-19T14:18:21.664Z,18.10
2018-10-19T14:20:50.401Z,18.20
2018-10-19T14:23:19.178Z,18.30
2018-10-19T14:25:47.834Z,18.60
2018-10-19T14:28:16.596Z,18.70
2018-10-19T14:30:45.381Z,18.80
2018-10-19T14:33:14.193Z,19.00
2018-10-19T14:35:43.000Z,19.10
2018-10-19T14:38:11.694Z,19.30
2018-10-19T14:40:40.356Z,19.60
2018-10-19T14:43:09.013Z,20.00
2018-10-19T14:45:37.717Z,20.10
2018-10-19T14:48:06.571Z,20.00
2018-10-19T14:50:35.520Z,19.90
2018-10-19T14:53:04.249Z,19.90
2018-10-19T14:55:33.024Z,20.00
2018-10-19T14:58:01.759Z,19.90
2018-10-19T15:00:30.485Z,19.80
2018-10-19T15:02:59.198Z,19.90
2018-10-19T15:05:27.946Z,20.10
2018-10-19T15:07:56.708Z,20.30
2018-10-19T15:10:25.493Z,19.90
2018-10-19T15:12:54.052Z,19.30
2018-10-19T15:15:23.403Z,18.70
2018-10-19T15:17:52.078Z,18.30
2018-10-19T15:20:20.756Z,18.00
2018-10-19T15:22:49.413Z,17.60
2018-10-19T15:25:18.102Z,17.40
2018-10-19T15:27:47.280Z,17.20
2018-10-19T15:30:17.717Z,17.10
2018-10-19T15:32:46.367Z,16.80
2018-10-19T15:35:15.039Z,16.60
2018-10-19T15:37:43.761Z,16.50
2018-10-19T15:40:12.788Z,16.40
2018-10-19T15:42:41.707Z,16.30
2018-10-19T15:45:12.025Z,16.30
2018-10-19T15:47:40.731Z,16.30
2018-10-19T15:50:09.768Z,16.20
2018-10-19T15:52:38.420Z,16.10
2018-10-19T15:55:07.438Z,16.00
2018-10-19T15:57:36.136Z,15.90
2018-10-19T16:00:05.131Z,15.80
2018-10-19T16:02:33.780Z,15.80
2018-10-19T16:05:02.381Z,15.80
2018-10-19T16:07:31.269Z,15.70
2018-10-19T16:10:00.108Z,15.70
2018-10-19T16:12:28.802Z,15.60
2018-10-19T16:14:57.560Z,15.60
2018-10-19T16:17:26.405Z,15.50
2018-10-19T16:19:55.099Z,15.40
2018-10-19T16:22:23.799Z,15.30
2018-10-19T16:24:52.479Z,15.20
2018-10-19T16:27:21.184Z,15.00
2018-10-19T16:29:49.819Z,14.90
2018-10-19T16:32:18.597Z,14.80
2018-10-19T16:34:47.386Z,14.70
2018-10-19T16:37:15.947Z,14.60
2018-10-19T16:39:44.650Z,14.40
2018-10-19T16:42:13.483Z,14.30
2018-10-19T16:44:42.302Z,14.20
2018-10-19T16:47:11.096Z,14.10
2018-10-19T16:49:39.757Z,14.00
2018-10-19T16:52:08.535Z,13.90
2018-10-19T16:54:37.159Z,13.80
2018-10-19T16:57:06.032Z,13.70
2018-10-19T16:59:34.877Z,13.60
2018-10-19T17:02:03.579Z,13.50
2018-10-19T17:04:32.393Z,13.40
2018-10-19T17:07:01.130Z,13.30
2018-10-19T17:09:29.964Z,13.20
2018-10-19T17:11:58.899Z,13.10
2018-10-19T17:14:27.797Z,13.10
2018-10-19T17:16:56.516Z,13.00
2018-10-19T17:19:25.256Z,13.00
2018-10-19T17:21:53.935Z,12.90
2018-10-19T17:24:22.662Z,12.90
2018-10-19T17:26:51.336Z,12.90
2018-10-19T17:29:19.927Z,12.90
2018-10-19T17:31:48.531Z,12.90
2018-10-19T17:34:17.174Z,12.90
2018-10-19T17:36:45.875Z,12.90
2018-10-19T17:39:14.476Z,12.90
2018-10-19T17:41:43.095Z,12.80
2018-10-19T17:44:11.697Z,12.80
2018-10-19T17:46:40.323Z,12.80
2018-10-19T17:49:09.162Z,12.80
2018-10-19T17:51:37.740Z,12.80
2018-10-19T17:54:06.475Z,12.80
2018-10-19T17:56:35.130Z,12.80
2018-10-19T17:59:03.790Z,12.70
2018-10-19T18:01:32.386Z,12.70
2018-10-19T18:04:01.038Z,12.60
2018-10-19T18:06:30.126Z,12.60
2018-10-19T18:08:58.783Z,12.60
2018-10-19T18:11:27.601Z,12.50
2018-10-19T18:13:56.304Z,12.50
2018-10-19T18:16:24.991Z,12.50
2018-10-19T18:18:53.750Z,12.40
2018-10-19T18:21:22.381Z,12.40
2018-10-19T18:23:51.131Z,12.40
2018-10-19T18:26:19.927Z,12.40
2018-10-19T18:28:48.599Z,12.40
2018-10-19T18:31:17.247Z,12.40
2018-10-19T18:33:45.821Z,12.30
2018-10-19T18:36:14.476Z,12.30
2018-10-19T18:38:43.321Z,12.30
2018-10-19T18:41:12.119Z,12.20
2018-10-19T18:43:40.637Z,12.20
2018-10-19T18:46:09.262Z,12.10
2018-10-19T18:48:37.981Z,12.10
2018-10-19T18:51:06.952Z,12.10
2018-10-19T18:53:35.521Z,12.00
2018-10-19T18:56:04.141Z,12.00
2018-10-19T18:58:32.736Z,12.00
2018-10-19T19:01:01.332Z,12.00
2018-10-19T19:03:30.036Z,11.90
2018-10-19T19:05:58.745Z,11.90
2018-10-19T19:08:27.328Z,11.90
2018-10-19T19:10:55.940Z,11.90
2018-10-19T19:13:28.663Z,11.90
2018-10-19T19:15:57.449Z,11.90
2018-10-19T19:18:26.215Z,11.90
2018-10-19T19:20:54.865Z,11.90
2018-10-19T19:23:23.505Z,11.90
2018-10-19T19:25:57.566Z,11.80
2018-10-19T19:28:26.185Z,11.80
2018-10-19T19:30:54.799Z,11.70
2018-10-19T19:33:28.672Z,11.80
2018-10-19T19:35:57.454Z,11.80
2018-10-19T19:38:26.072Z,11.70
2018-10-19T19:41:00.011Z,11.70
2018-10-19T19:43:28.600Z,11.60
2018-10-19T19:45:57.270Z,11.60
2018-10-19T19:48:31.113Z,11.60
2018-10-19T19:50:59.761Z,11.50
2018-10-19T19:53:28.335Z,11.50
2018-10-19T19:55:56.997Z,11.40
2018-10-19T19:58:25.583Z,11.40
2018-10-19T20:00:54.267Z,11.40
2018-10-19T20:03:22.984Z,11.40
2018-10-19T20:05:51.632Z,11.30
2018-10-19T20:08:20.192Z,11.30
2018-10-19T20:10:48.783Z,11.30
2018-10-19T20:13:17.601Z,11.20
2018-10-19T20:15:46.282Z,11.20
2018-10-19T20:18:14.980Z,11.20
2018-10-19T20:20:43.796Z,11.20
2018-10-19T20:23:12.476Z,11.10
2018-10-19T20:25:41.092Z,11.10
2018-10-19T20:28:09.781Z,11.10
2018-10-19T20:30:38.377Z,11.00
2018-10-19T20:33:07.047Z,11.00
2018-10-19T20:35:35.761Z,11.00
2018-10-19T20:38:04.468Z,11.00
2018-10-19T20:40:33.169Z,10.90
2018-10-19T20:43:01.813Z,10.90
2018-10-19T20:45:30.438Z,10.90
2018-10-19T20:47:59.047Z,10.90
2018-10-19T20:50:27.610Z,10.90
2018-10-19T20:52:56.298Z,10.90
2018-10-19T20:55:25.010Z,10.90
2018-10-19T20:57:53.608Z,10.90
2018-10-19T21:00:22.244Z,10.90
2018-10-19T21:02:50.791Z,10.90
2018-10-19T21:05:19.370Z,10.90
2018-10-19T21:07:47.966Z,10.90
2018-10-19T21:10:16.567Z,10.90
2018-10-19T21:12:45.203Z,10.90
2018-10-19T21:15:14.441Z,10.90
2018-10-19T21:17:43.370Z,11.00
2018-10-19T21:20:12.757Z,11.00
2018-10-19T21:22:41.333Z,11.00
2018-10-19T21:25:11.199Z,11.10
2018-10-19T21:27:39.849Z,11.20
2018-10-19T21:30:09.750Z,11.20
2018-10-19T21:32:38.488Z,11.30
2018-10-19T21:35:07.308Z,11.30
2018-10-19T21:37:36.032Z,11.30
2018-10-19T21:40:04.888Z,11.30
2018-10-19T21:42:33.636Z,11.30
2018-10-19T21:45:02.284Z,11.30
2018-10-19T21:47:30.902Z,11.30
2018-10-19T21:49:59.604Z,11.30
2018-10-19T21:52:28.224Z,11.20
2018-10-19T21:54:56.833Z,11.20
2018-10-19T21:57:25.584Z,11.20
2018-10-19T21:59:54.208Z,11.20
2018-10-19T22:02:22.841Z,11.20
2018-10-19T22:04:51.426Z,11.20
2018-10-19T22:07:20.059Z,11.10
2018-10-19T22:09:48.655Z,11.20
2018-10-19T22:12:17.246Z,11.20
2018-10-19T22:14:45.847Z,11.30
2018-10-19T22:17:14.453Z,11.30
2018-10-19T22:19:43.105Z,11.20
2018-10-19T22:22:11.781Z,11.20
2018-10-19T22:24:40.403Z,11.20
2018-10-19T22:27:09.195Z,11.20
2018-10-19T22:29:37.847Z,11.20
2018-10-19T22:32:06.413Z,11.20
2018-10-19T22:34:35.001Z,11.20
2018-10-19T22:37:03.760Z,11.20
2018-10-19T22:39:32.348Z,11.20
2018-10-19T22:42:00.988Z,11.20
2018-10-19T22:44:29.543Z,11.20
2018-10-19T22:46:58.300Z,11.30
2018-10-19T22:49:26.964Z,11.30
2018-10-19T22:51:55.580Z,11.30
2018-10-19T22:54:24.164Z,11.40
2018-10-19T22:56:52.799Z,11.40
2018-10-19T22:59:21.421Z,11.40
2018-10-19T23:01:49.969Z,11.40
2018-10-19T23:04:18.520Z,11.40
2018-10-19T23:06:47.287Z,11.40
2018-10-19T23:09:15.893Z,11.30
2018-10-19T23:11:44.551Z,11.20
2018-10-19T23:14:13.203Z,11.10
2018-10-19T23:16:41.801Z,11.10
2018-10-19T23:19:10.405Z,11.00
2018-10-19T23:21:39.080Z,10.90
2018-10-19T23:24:08.296Z,10.80
2018-10-19T23:26:36.916Z,10.80
2018-10-19T23:29:05.828Z,10.70
2018-10-19T23:31:34.431Z,10.50
2018-10-19T23:34:02.960Z,10.50
2018-10-19T23:36:31.520Z,10.40
2018-10-19T23:39:00.113Z,10.30
2018-10-19T23:41:28.760Z,10.30
2018-10-19T23:43:57.326Z,10.20
2018-10-19T23:46:25.893Z,10.10
2018-10-19T23:48:54.488Z,10.00
2018-10-19T23:51:23.095Z,9.90
2018-10-19T23:53:51.653Z,9.80
2018-10-19T23:56:20.349Z,9.70
2018-10-19T23:58:48.957Z,9.70
